sensor_id;sensor_type;location;lat;lon;timestamp;pressure;altitude;pressure_sealevel;temperature;humidity
54592;BME280;40488;48.558;18.150;2022-10-16T00:01:47;99925.81;;;14.32;82.77
54592;BME280;40488;48.558;18.150;2022-10-16T00:04:16;99937.72;;;14.39;83.24
54592;BME280;40488;48.558;18.150;2022-10-16T00:06:45;99941.13;;;14.38;83.10
54592;BME280;40488;48.558;18.150;2022-10-16T00:09:13;99956.56;;;14.35;83.17
54592;BME280;40488;48.558;18.150;2022-10-16T00:11:43;99949.75;;;14.34;83.54
54592;BME280;40488;48.558;18.150;2022-10-16T00:14:14;99953.16;;;14.33;83.53
54592;BME280;40488;48.558;18.150;2022-10-16T00:16:43;99948.91;;;14.32;83.51
54592;BME280;40488;48.558;18.150;2022-10-16T00:19:12;99951.50;;;14.31;83.11
54592;BME280;40488;48.558;18.150;2022-10-16T00:21:40;99959.19;;;14.29;83.14
54592;BME280;40488;48.558;18.150;2022-10-16T00:24:19;99942.97;;;14.27;83.61
54592;BME280;40488;48.558;18.150;2022-10-16T00:26:50;99948.09;;;14.27;83.02
54592;BME280;40488;48.558;18.150;2022-10-16T00:29:20;99943.84;;;14.23;83.17
54592;BME280;40488;48.558;18.150;2022-10-16T00:31:48;99932.81;;;14.15;83.79
54592;BME280;40488;48.558;18.150;2022-10-16T00:34:17;99941.34;;;14.17;83.19
54592;BME280;40488;48.558;18.150;2022-10-16T00:36:45;99943.16;;;14.10;83.59
54592;BME280;40488;48.558;18.150;2022-10-16T00:39:14;99943.22;;;14.03;83.84
54592;BME280;40488;48.558;18.150;2022-10-16T00:41:43;99947.53;;;14.01;83.49
54592;BME280;40488;48.558;18.150;2022-10-16T00:47:02;99961.38;;;13.83;83.65
54592;BME280;40488;48.558;18.150;2022-10-16T00:49:31;99963.97;;;13.77;83.66
54592;BME280;40488;48.558;18.150;2022-10-16T00:51:59;99974.38;;;13.65;83.47
54592;BME280;40488;48.558;18.150;2022-10-16T00:54:30;99971.91;;;13.52;83.45
54592;BME280;40488;48.558;18.150;2022-10-16T00:57:01;99976.28;;;13.40;83.53
54592;BME280;40488;48.558;18.150;2022-10-16T00:59:32;99982.25;;;13.36;83.68
54592;BME280;40488;48.558;18.150;2022-10-16T01:02:04;99976.28;;;13.37;84.22
54592;BME280;40488;48.558;18.150;2022-10-16T01:04:37;99978.03;;;13.32;84.50
54592;BME280;40488;48.558;18.150;2022-10-16T01:07:14;99982.28;;;13.35;84.41
54592;BME280;40488;48.558;18.150;2022-10-16T01:09:53;99987.44;;;13.33;84.77
54592;BME280;40488;48.558;18.150;2022-10-16T01:12:36;99989.16;;;13.31;84.60
54592;BME280;40488;48.558;18.150;2022-10-16T01:15:18;99996.81;;;13.34;85.05
54592;BME280;40488;48.558;18.150;2022-10-16T01:17:57;99997.63;;;13.39;85.30
54592;BME280;40488;48.558;18.150;2022-10-16T01:20:31;99993.34;;;13.43;85.47
54592;BME280;40488;48.558;18.150;2022-10-16T01:23:12;99996.72;;;13.47;85.37
54592;BME280;40488;48.558;18.150;2022-10-16T01:26:08;99987.31;;;13.50;85.08
54592;BME280;40488;48.558;18.150;2022-10-16T01:28:42;99991.56;;;13.53;85.27
54592;BME280;40488;48.558;18.150;2022-10-16T01:31:18;99989.84;;;13.52;85.12
54592;BME280;40488;48.558;18.150;2022-10-16T01:33:51;99984.72;;;13.52;85.33
54592;BME280;40488;48.558;18.150;2022-10-16T01:36:28;99986.47;;;13.48;85.38
54592;BME280;40488;48.558;18.150;2022-10-16T01:39:01;99984.75;;;13.47;85.28
54592;BME280;40488;48.558;18.150;2022-10-16T01:41:33;99983.03;;;13.49;84.99
54592;BME280;40488;48.558;18.150;2022-10-16T01:44:07;99983.06;;;13.48;85.22
54592;BME280;40488;48.558;18.150;2022-10-16T01:46:40;99985.66;;;13.43;84.96
54592;BME280;40488;48.558;18.150;2022-10-16T01:49:10;99984.81;;;13.39;85.00
54592;BME280;40488;48.558;18.150;2022-10-16T01:51:41;99986.59;;;13.31;85.06
54592;BME280;40488;48.558;18.150;2022-10-16T01:54:14;100007.97;;;13.30;84.85
54592;BME280;40488;48.558;18.150;2022-10-16T01:56:46;100000.28;;;13.27;85.08
54592;BME280;40488;48.558;18.150;2022-10-16T01:59:21;100002.03;;;13.22;85.03
54592;BME280;40488;48.558;18.150;2022-10-16T02:01:55;100007.16;;;13.22;85.12
54592;BME280;40488;48.558;18.150;2022-10-16T02:04:29;100014.84;;;13.24;84.98
54592;BME280;40488;48.558;18.150;2022-10-16T02:07:00;100018.28;;;13.24;84.85
54592;BME280;40488;48.558;18.150;2022-10-16T02:09:30;100009.72;;;13.21;85.12
54592;BME280;40488;48.558;18.150;2022-10-16T02:12:03;100012.25;;;13.25;85.39
54592;BME280;40488;48.558;18.150;2022-10-16T02:14:38;100021.66;;;13.25;85.12
54592;BME280;40488;48.558;18.150;2022-10-16T02:17:12;100024.25;;;13.23;85.04
54592;BME280;40488;48.558;18.150;2022-10-16T02:19:41;100018.28;;;13.21;84.95
54592;BME280;40488;48.558;18.150;2022-10-16T02:22:16;100024.25;;;13.20;85.29
54592;BME280;40488;48.558;18.150;2022-10-16T02:24:51;100030.25;;;13.21;85.32
54592;BME280;40488;48.558;18.150;2022-10-16T02:27:25;100025.13;;;13.21;85.07
54592;BME280;40488;48.558;18.150;2022-10-16T02:30:03;100022.56;;;13.19;85.24
54592;BME280;40488;48.558;18.150;2022-10-16T02:32:37;100014.88;;;13.18;85.61
54592;BME280;40488;48.558;18.150;2022-10-16T02:35:09;100017.44;;;13.16;85.26
54592;BME280;40488;48.558;18.150;2022-10-16T02:37:39;100026.81;;;13.17;85.01
54592;BME280;40488;48.558;18.150;2022-10-16T02:40:10;100028.59;;;13.12;85.41
54592;BME280;40488;48.558;18.150;2022-10-16T02:42:40;100026.91;;;13.10;85.38
54592;BME280;40488;48.558;18.150;2022-10-16T02:45:11;100027.72;;;13.10;85.37
54592;BME280;40488;48.558;18.150;2022-10-16T02:47:40;100032.03;;;13.07;85.25
54592;BME280;40488;48.558;18.150;2022-10-16T02:50:08;100030.31;;;13.07;85.52
54592;BME280;40488;48.558;18.150;2022-10-16T02:52:37;100031.16;;;13.06;85.52
54592;BME280;40488;48.558;18.150;2022-10-16T02:55:06;100027.75;;;13.04;85.43
54592;BME280;40488;48.558;18.150;2022-10-16T02:57:35;100038.84;;;13.05;85.19
54592;BME280;40488;48.558;18.150;2022-10-16T03:00:11;100037.97;;;13.04;85.27
54592;BME280;40488;48.558;18.150;2022-10-16T03:02:41;100033.72;;;13.03;85.41
54592;BME280;40488;48.558;18.150;2022-10-16T03:05:10;100027.75;;;13.04;85.21
54592;BME280;40488;48.558;18.150;2022-10-16T03:07:38;100034.59;;;13.02;85.07
54592;BME280;40488;48.558;18.150;2022-10-16T03:10:08;100034.56;;;13.04;85.56
54592;BME280;40488;48.558;18.150;2022-10-16T03:12:36;100031.16;;;13.03;84.86
54592;BME280;40488;48.558;18.150;2022-10-16T03:15:06;100035.44;;;13.03;85.11
54592;BME280;40488;48.558;18.150;2022-10-16T03:17:36;100037.97;;;13.04;84.66
54592;BME280;40488;48.558;18.150;2022-10-16T03:20:04;100040.56;;;13.06;85.15
54592;BME280;40488;48.558;18.150;2022-10-16T03:22:33;100042.22;;;13.05;85.20
54592;BME280;40488;48.558;18.150;2022-10-16T03:25:02;100037.97;;;13.04;85.06
54592;BME280;40488;48.558;18.150;2022-10-16T03:27:31;100038.00;;;13.01;85.04
54592;BME280;40488;48.558;18.150;2022-10-16T03:29:59;100044.81;;;13.04;85.30
54592;BME280;40488;48.558;18.150;2022-10-16T03:32:29;100043.13;;;13.04;85.42
54592;BME280;40488;48.558;18.150;2022-10-16T03:34:59;100037.97;;;13.04;84.94
54592;BME280;40488;48.558;18.150;2022-10-16T03:37:28;100038.84;;;13.02;84.89
54592;BME280;40488;48.558;18.150;2022-10-16T03:39:56;100036.28;;;13.03;85.25
54592;BME280;40488;48.558;18.150;2022-10-16T03:42:26;100040.56;;;13.04;85.47
54592;BME280;40488;48.558;18.150;2022-10-16T03:44:55;100043.97;;;13.06;85.06
54592;BME280;40488;48.558;18.150;2022-10-16T03:47:23;100044.78;;;13.05;85.14
54592;BME280;40488;48.558;18.150;2022-10-16T03:49:52;100043.13;;;13.04;84.85
54592;BME280;40488;48.558;18.150;2022-10-16T03:52:22;100047.41;;;13.07;85.15
54592;BME280;40488;48.558;18.150;2022-10-16T03:54:51;100055.09;;;13.07;85.34
54592;BME280;40488;48.558;18.150;2022-10-16T03:57:20;100059.34;;;13.08;85.49
54592;BME280;40488;48.558;18.150;2022-10-16T03:59:49;100060.22;;;13.10;85.42
54592;BME280;40488;48.558;18.150;2022-10-16T04:02:17;100061.06;;;13.09;85.34
54592;BME280;40488;48.558;18.150;2022-10-16T04:04:46;100064.47;;;13.08;85.54
54592;BME280;40488;48.558;18.150;2022-10-16T04:07:15;100067.03;;;13.09;85.17
54592;BME280;40488;48.558;18.150;2022-10-16T04:09:45;100067.03;;;13.09;85.72
54592;BME280;40488;48.558;18.150;2022-10-16T04:12:13;100067.03;;;13.09;85.26
54592;BME280;40488;48.558;18.150;2022-10-16T04:14:42;100075.56;;;13.11;85.55
54592;BME280;40488;48.558;18.150;2022-10-16T04:17:11;100073.84;;;13.10;85.19
54592;BME280;40488;48.558;18.150;2022-10-16T04:19:40;100074.72;;;13.11;85.46
54592;BME280;40488;48.558;18.150;2022-10-16T04:22:09;100072.16;;;13.06;85.16
54592;BME280;40488;48.558;18.150;2022-10-16T04:24:38;100062.78;;;13.02;85.07
54592;BME280;40488;48.558;18.150;2022-10-16T04:27:08;100067.91;;;12.99;85.49
54592;BME280;40488;48.558;18.150;2022-10-16T04:29:37;100074.75;;;12.97;85.38
54592;BME280;40488;48.558;18.150;2022-10-16T04:32:06;100067.94;;;12.95;85.02
54592;BME280;40488;48.558;18.150;2022-10-16T04:34:36;100061.94;;;12.91;85.39
54592;BME280;40488;48.558;18.150;2022-10-16T04:37:07;100058.53;;;12.89;85.13
54592;BME280;40488;48.558;18.150;2022-10-16T04:39:36;100054.28;;;12.87;85.63
54592;BME280;40488;48.558;18.150;2022-10-16T04:42:05;100051.75;;;12.88;85.24
54592;BME280;40488;48.558;18.150;2022-10-16T04:44:36;100054.28;;;12.88;85.67
54592;BME280;40488;48.558;18.150;2022-10-16T04:47:04;100049.16;;;12.88;85.38
54592;BME280;40488;48.558;18.150;2022-10-16T04:49:33;100051.75;;;12.88;85.34
54592;BME280;40488;48.558;18.150;2022-10-16T04:52:02;100055.16;;;12.84;85.54
54592;BME280;40488;48.558;18.150;2022-10-16T04:54:31;100055.16;;;12.84;85.66
54592;BME280;40488;48.558;18.150;2022-10-16T04:57:00;100063.66;;;12.92;85.68
54592;BME280;40488;48.558;18.150;2022-10-16T04:59:28;100023.63;;;12.67;85.65
54592;BME280;40488;48.558;18.150;2022-10-16T05:01:58;100075.59;;;12.96;85.45
54592;BME280;40488;48.558;18.150;2022-10-16T05:04:27;100079.03;;;12.95;85.53
54592;BME280;40488;48.558;18.150;2022-10-16T05:06:56;100082.44;;;12.94;85.44
54592;BME280;40488;48.558;18.150;2022-10-16T05:09:24;100099.50;;;12.98;85.47
54592;BME280;40488;48.558;18.150;2022-10-16T05:11:53;100103.78;;;12.98;85.26
54592;BME280;40488;48.558;18.150;2022-10-16T05:14:22;100108.06;;;12.97;85.23
54592;BME280;40488;48.558;18.150;2022-10-16T05:16:50;100102.06;;;12.97;85.42
54592;BME280;40488;48.558;18.150;2022-10-16T05:19:21;100099.53;;;12.95;85.16
54592;BME280;40488;48.558;18.150;2022-10-16T05:21:54;100111.50;;;12.87;85.46
54592;BME280;40488;48.558;18.150;2022-10-16T05:24:22;100110.69;;;12.84;85.24
54592;BME280;40488;48.558;18.150;2022-10-16T05:26:51;100108.94;;;12.84;85.28
54592;BME280;40488;48.558;18.150;2022-10-16T05:29:20;100118.34;;;12.79;85.79
54592;BME280;40488;48.558;18.150;2022-10-16T05:31:50;100119.22;;;12.70;85.08
54592;BME280;40488;48.558;18.150;2022-10-16T05:34:21;100128.63;;;12.70;85.15
54592;BME280;40488;48.558;18.150;2022-10-16T05:36:51;100140.59;;;12.68;85.35
54592;BME280;40488;48.558;18.150;2022-10-16T05:39:20;100136.31;;;12.61;85.39
54592;BME280;40488;48.558;18.150;2022-10-16T05:41:49;100126.94;;;12.66;85.30
54592;BME280;40488;48.558;18.150;2022-10-16T05:44:19;100133.75;;;12.73;85.41
54592;BME280;40488;48.558;18.150;2022-10-16T05:46:48;100133.72;;;12.79;85.60
54592;BME280;40488;48.558;18.150;2022-10-16T05:49:17;100140.56;;;12.80;85.62
54592;BME280;40488;48.558;18.150;2022-10-16T05:51:47;100139.69;;;12.87;85.75
54592;BME280;40488;48.558;18.150;2022-10-16T05:54:15;100135.41;;;12.92;85.85
54592;BME280;40488;48.558;18.150;2022-10-16T05:56:44;100131.97;;;12.96;85.60
54592;BME280;40488;48.558;18.150;2022-10-16T05:59:14;100131.97;;;13.02;85.45
54592;BME280;40488;48.558;18.150;2022-10-16T06:01:42;100134.53;;;13.07;85.72
54592;BME280;40488;48.558;18.150;2022-10-16T06:04:11;100142.19;;;13.13;85.67
54592;BME280;40488;48.558;18.150;2022-10-16T06:06:39;100145.59;;;13.19;85.59
54592;BME280;40488;48.558;18.150;2022-10-16T06:09:10;100140.44;;;13.31;85.83
54592;BME280;40488;48.558;18.150;2022-10-16T06:11:39;100148.91;;;13.42;86.03
54592;BME280;40488;48.558;18.150;2022-10-16T06:14:08;100142.03;;;13.51;85.31
54592;BME280;40488;48.558;18.150;2022-10-16T06:16:37;100155.69;;;13.54;85.24
54592;BME280;40488;48.558;18.150;2022-10-16T06:19:06;100155.66;;;13.56;85.63
54592;BME280;40488;48.558;18.150;2022-10-16T06:21:35;100150.53;;;13.56;84.94
54592;BME280;40488;48.558;18.150;2022-10-16T06:24:04;100110.53;;;13.29;85.15
54592;BME280;40488;48.558;18.150;2022-10-16T06:26:34;100157.38;;;13.57;84.95
54592;BME280;40488;48.558;18.150;2022-10-16T06:29:02;100162.50;;;13.63;84.65
54592;BME280;40488;48.558;18.150;2022-10-16T06:31:31;100171.00;;;13.68;84.75
54592;BME280;40488;48.558;18.150;2022-10-16T06:34:00;100179.50;;;13.73;84.05
54592;BME280;40488;48.558;18.150;2022-10-16T06:36:31;100178.66;;;13.77;84.17
54592;BME280;40488;48.558;18.150;2022-10-16T06:39:00;100184.63;;;13.79;83.96
54592;BME280;40488;48.558;18.150;2022-10-16T06:41:29;100186.31;;;13.84;84.10
54592;BME280;40488;48.558;18.150;2022-10-16T06:44:06;100194.00;;;13.89;84.25
54592;BME280;40488;48.558;18.150;2022-10-16T06:46:35;100189.69;;;13.91;83.75
54592;BME280;40488;48.558;18.150;2022-10-16T06:49:04;100186.25;;;13.92;83.58
54592;BME280;40488;48.558;18.150;2022-10-16T06:51:32;100180.28;;;13.88;83.53
54592;BME280;40488;48.558;18.150;2022-10-16T06:54:09;100205.88;;;13.99;83.91
54592;BME280;40488;48.558;18.150;2022-10-16T06:56:37;100216.16;;;14.00;83.93
54592;BME280;40488;48.558;18.150;2022-10-16T06:59:08;100211.84;;;14.04;83.74
54592;BME280;40488;48.558;18.150;2022-10-16T07:01:36;100211.84;;;14.05;83.67
54592;BME280;40488;48.558;18.150;2022-10-16T07:04:05;100209.28;;;14.05;83.54
54592;BME280;40488;48.558;18.150;2022-10-16T07:12:54;100229.72;;;14.22;84.10
54592;BME280;40488;48.558;18.150;2022-10-16T07:15:24;100233.94;;;14.26;83.97
54592;BME280;40488;48.558;18.150;2022-10-16T07:17:53;100229.66;;;14.31;84.04
54592;BME280;40488;48.558;18.150;2022-10-16T07:20:22;100232.25;;;14.31;83.56
54592;BME280;40488;48.558;18.150;2022-10-16T07:22:50;100230.50;;;14.36;83.32
54592;BME280;40488;48.558;18.150;2022-10-16T07:25:19;100227.84;;;14.42;83.66
54592;BME280;40488;48.558;18.150;2022-10-16T07:27:48;100230.41;;;14.48;83.23
54592;BME280;40488;48.558;18.150;2022-10-16T07:30:16;100239.75;;;14.55;82.77
54592;BME280;40488;48.558;18.150;2022-10-16T07:32:46;100231.16;;;14.61;82.85
54592;BME280;40488;48.558;18.150;2022-10-16T07:35:15;100237.09;;;14.67;82.21
54592;BME280;40488;48.558;18.150;2022-10-16T07:37:45;100226.75;;;14.73;82.45
54592;BME280;40488;48.558;18.150;2022-10-16T07:40:14;100228.44;;;14.77;82.05
54592;BME280;40488;48.558;18.150;2022-10-16T07:42:43;100241.22;;;14.84;81.95
54592;BME280;40488;48.558;18.150;2022-10-16T07:45:11;100252.31;;;14.89;81.56
54592;BME280;40488;48.558;18.150;2022-10-16T07:47:40;100248.00;;;14.94;80.98
54592;BME280;40488;48.558;18.150;2022-10-16T07:50:10;100245.34;;;15.00;81.02
54592;BME280;40488;48.558;18.150;2022-10-16T07:52:39;100245.31;;;15.06;80.58
54592;BME280;40488;48.558;18.150;2022-10-16T07:55:08;100244.38;;;15.13;80.24
54592;BME280;40488;48.558;18.150;2022-10-16T07:57:36;100251.16;;;15.20;80.30
54592;BME280;40488;48.558;18.150;2022-10-16T08:00:06;100251.09;;;15.27;79.79
54592;BME280;40488;48.558;18.150;2022-10-16T08:02:41;100247.53;;;15.36;79.66
54592;BME280;40488;48.558;18.150;2022-10-16T08:05:11;100252.63;;;15.43;79.32
54592;BME280;40488;48.558;18.150;2022-10-16T08:07:40;100246.59;;;15.49;79.32
54592;BME280;40488;48.558;18.150;2022-10-16T08:10:15;100252.44;;;15.60;79.39
54592;BME280;40488;48.558;18.150;2022-10-16T08:12:45;100259.19;;;15.70;78.96
54592;BME280;40488;48.558;18.150;2022-10-16T08:15:13;100254.84;;;15.75;78.74
54592;BME280;40488;48.558;18.150;2022-10-16T08:17:42;100253.97;;;15.75;78.09
54592;BME280;40488;48.558;18.150;2022-10-16T08:20:12;100265.09;;;15.78;77.25
54592;BME280;40488;48.558;18.150;2022-10-16T08:22:40;100266.75;;;15.82;77.03
54592;BME280;40488;48.558;18.150;2022-10-16T08:25:09;100253.91;;;15.82;76.44
54592;BME280;40488;48.558;18.150;2022-10-16T08:27:37;100259.03;;;15.82;76.01
54592;BME280;40488;48.558;18.150;2022-10-16T08:30:08;100272.75;;;15.84;75.42
54592;BME280;40488;48.558;18.150;2022-10-16T08:32:37;100271.81;;;15.88;75.43
54592;BME280;40488;48.558;18.150;2022-10-16T08:35:06;100282.91;;;15.95;75.04
54592;BME280;40488;48.558;18.150;2022-10-16T08:37:37;100278.47;;;16.07;75.40
54592;BME280;40488;48.558;18.150;2022-10-16T08:40:16;100279.97;;;16.21;75.57
54592;BME280;40488;48.558;18.150;2022-10-16T08:43:04;100286.69;;;16.34;74.94
54592;BME280;40488;48.558;18.150;2022-10-16T08:45:49;100296.84;;;16.43;74.01
54592;BME280;40488;48.558;18.150;2022-10-16T08:48:26;100295.06;;;16.48;73.04
54592;BME280;40488;48.558;18.150;2022-10-16T08:50:58;100296.75;;;16.49;72.32
54592;BME280;40488;48.558;18.150;2022-10-16T08:53:31;100295.88;;;16.50;72.52
54592;BME280;40488;48.558;18.150;2022-10-16T08:56:02;100301.84;;;16.53;72.31
54592;BME280;40488;48.558;18.150;2022-10-16T08:58:31;100292.41;;;16.54;71.50
54592;BME280;40488;48.558;18.150;2022-10-16T09:01:01;100284.69;;;16.54;71.25
54592;BME280;40488;48.558;18.150;2022-10-16T09:03:41;100288.97;;;16.53;71.07
54592;BME280;40488;48.558;18.150;2022-10-16T09:06:35;100283.78;;;16.58;71.15
54592;BME280;40488;48.558;18.150;2022-10-16T09:12:04;100294.78;;;16.66;72.05
54592;BME280;40488;48.558;18.150;2022-10-16T09:14:53;100291.28;;;16.70;71.65
54592;BME280;40488;48.558;18.150;2022-10-16T09:17:32;100285.22;;;16.72;71.21
54592;BME280;40488;48.558;18.150;2022-10-16T09:20:20;100298.81;;;16.82;71.01
54592;BME280;40488;48.558;18.150;2022-10-16T09:23:14;100302.19;;;16.89;70.69
54592;BME280;40488;48.558;18.150;2022-10-16T09:25:46;100286.59;;;16.95;70.47
54592;BME280;40488;48.558;18.150;2022-10-16T09:28:18;100283.88;;;17.02;70.40
54592;BME280;40488;48.558;18.150;2022-10-16T09:30:47;100286.38;;;17.07;69.62
54592;BME280;40488;48.558;18.150;2022-10-16T09:33:17;100287.19;;;17.10;69.42
54592;BME280;40488;48.558;18.150;2022-10-16T09:35:47;100292.28;;;17.13;69.30
54592;BME280;40488;48.558;18.150;2022-10-16T09:38:26;100296.22;;;17.34;69.23
54592;BME280;40488;48.558;18.150;2022-10-16T09:40:58;100282.69;;;17.67;69.08
54592;BME280;40488;48.558;18.150;2022-10-16T09:43:34;100293.25;;;17.99;67.88
54592;BME280;40488;48.558;18.150;2022-10-16T09:46:19;100285.94;;;18.17;66.58
54592;BME280;40488;48.558;18.150;2022-10-16T09:48:50;100293.31;;;18.33;65.67
54592;BME280;40488;48.558;18.150;2022-10-16T09:51:23;100291.44;;;18.41;64.56
54592;BME280;40488;48.558;18.150;2022-10-16T09:53:56;100298.06;;;18.54;63.88
54592;BME280;40488;48.558;18.150;2022-10-16T09:56:28;100302.78;;;18.72;63.04
54592;BME280;40488;48.558;18.150;2022-10-16T09:58:58;100306.69;;;18.89;62.72
54592;BME280;40488;48.558;18.150;2022-10-16T10:01:31;100308.53;;;18.85;62.80
54592;BME280;40488;48.558;18.150;2022-10-16T10:04:05;100312.91;;;18.82;62.75
54592;BME280;40488;48.558;18.150;2022-10-16T10:06:34;100317.25;;;18.81;62.53
54592;BME280;40488;48.558;18.150;2022-10-16T10:09:13;100308.00;;;18.71;62.30
54592;BME280;40488;48.558;18.150;2022-10-16T10:11:48;100309.09;;;18.61;62.24
54592;BME280;40488;48.558;18.150;2022-10-16T10:14:26;100304.06;;;18.55;62.19
54592;BME280;40488;48.558;18.150;2022-10-16T10:17:10;100307.56;;;18.54;62.44
54592;BME280;40488;48.558;18.150;2022-10-16T10:19:43;100304.91;;;18.55;62.88
54592;BME280;40488;48.558;18.150;2022-10-16T10:25:16;100313.31;;;18.65;63.03
54592;BME280;40488;48.558;18.150;2022-10-16T10:28:00;100315.72;;;18.72;63.85
54592;BME280;40488;48.558;18.150;2022-10-16T10:30:38;100316.56;;;18.73;63.26
54592;BME280;40488;48.558;18.150;2022-10-16T10:33:18;100312.31;;;18.70;62.66
54592;BME280;40488;48.558;18.150;2022-10-16T10:35:55;100303.72;;;18.70;62.32
54592;BME280;40488;48.558;18.150;2022-10-16T10:38:32;100304.50;;;18.73;62.49
54592;BME280;40488;48.558;18.150;2022-10-16T10:41:19;100310.44;;;18.77;62.47
54592;BME280;40488;48.558;18.150;2022-10-16T10:44:03;100299.34;;;18.73;62.50
54592;BME280;40488;48.558;18.150;2022-10-16T10:46:36;100312.91;;;18.82;61.67
54592;BME280;40488;48.558;18.150;2022-10-16T10:49:30;100309.50;;;18.80;61.18
54592;BME280;40488;48.558;18.150;2022-10-16T10:52:17;100306.06;;;18.79;61.92
54592;BME280;40488;48.558;18.150;2022-10-16T10:54:51;100307.84;;;18.79;61.77
54592;BME280;40488;48.558;18.150;2022-10-16T10:57:30;100308.66;;;18.79;61.88
54592;BME280;40488;48.558;18.150;2022-10-16T11:00:18;100316.41;;;18.81;61.95
54592;BME280;40488;48.558;18.150;2022-10-16T11:02:55;100318.13;;;18.80;61.20
54592;BME280;40488;48.558;18.150;2022-10-16T11:05:41;100317.25;;;18.81;61.38
54592;BME280;40488;48.558;18.150;2022-10-16T11:08:15;100321.56;;;18.81;61.08
54592;BME280;40488;48.558;18.150;2022-10-16T11:10:50;100309.44;;;18.83;60.97
54592;BME280;40488;48.558;18.150;2022-10-16T11:13:31;100312.84;;;18.85;60.66
54592;BME280;40488;48.558;18.150;2022-10-16T11:16:13;100298.88;;;18.92;60.96
54592;BME280;40488;48.558;18.150;2022-10-16T11:18:52;100314.16;;;19.01;60.96
54592;BME280;40488;48.558;18.150;2022-10-16T11:21:25;100316.63;;;19.05;60.89
54592;BME280;40488;48.558;18.150;2022-10-16T11:24:01;100312.16;;;19.12;60.71
54592;BME280;40488;48.558;18.150;2022-10-16T11:26:34;100316.31;;;19.17;60.16
54592;BME280;40488;48.558;18.150;2022-10-16T11:29:14;100316.25;;;19.20;59.63
54592;BME280;40488;48.558;18.150;2022-10-16T11:31:48;100311.16;;;19.17;59.39
54592;BME280;40488;48.558;18.150;2022-10-16T11:34:24;100304.41;;;19.12;59.23
54592;BME280;40488;48.558;18.150;2022-10-16T11:37:08;100310.47;;;19.11;59.10
54592;BME280;40488;48.558;18.150;2022-10-16T11:39:39;100312.94;;;19.15;60.03
54592;BME280;40488;48.558;18.150;2022-10-16T11:42:11;100320.75;;;19.14;59.69
54592;BME280;40488;48.558;18.150;2022-10-16T11:44:59;100313.84;;;19.13;60.08
54592;BME280;40488;48.558;18.150;2022-10-16T11:47:35;100315.56;;;19.14;59.68
54592;BME280;40488;48.558;18.150;2022-10-16T11:50:28;100306.75;;;19.21;59.16
54592;BME280;40488;48.558;18.150;2022-10-16T11:53:04;100306.28;;;19.39;58.66
54592;BME280;40488;48.558;18.150;2022-10-16T11:55:40;100281.69;;;19.55;58.32
54592;BME280;40488;48.558;18.150;2022-10-16T11:58:21;100292.91;;;19.86;57.67
54592;BME280;40488;48.558;18.150;2022-10-16T12:00:57;100301.47;;;20.18;56.69
54592;BME280;40488;48.558;18.150;2022-10-16T12:03:35;100297.75;;;20.54;55.88
54592;BME280;40488;48.558;18.150;2022-10-16T12:06:23;100299.63;;;20.77;55.14
54592;BME280;40488;48.558;18.150;2022-10-16T12:08:53;100294.69;;;20.95;54.32
54592;BME280;40488;48.558;18.150;2022-10-16T12:11:32;100293.56;;;21.28;53.89
54592;BME280;40488;48.558;18.150;2022-10-16T12:14:16;100299.59;;;21.30;53.42
54592;BME280;40488;48.558;18.150;2022-10-16T12:16:54;100300.91;;;21.17;53.14
54592;BME280;40488;48.558;18.150;2022-10-16T12:19:27;100303.09;;;21.03;53.50
54592;BME280;40488;48.558;18.150;2022-10-16T12:21:58;100305.63;;;21.06;53.73
54592;BME280;40488;48.558;18.150;2022-10-16T12:24:32;100308.59;;;20.94;53.55
54592;BME280;40488;48.558;18.150;2022-10-16T12:27:03;100293.00;;;20.94;53.63
54592;BME280;40488;48.558;18.150;2022-10-16T12:29:35;100289.03;;;21.10;53.65
54592;BME280;40488;48.558;18.150;2022-10-16T12:32:06;100296.25;;;21.27;53.25
54592;BME280;40488;48.558;18.150;2022-10-16T12:35:20;100295.97;;;21.34;52.87
54592;BME280;40488;48.558;18.150;2022-10-16T12:37:50;100298.91;;;21.25;52.91
54592;BME280;40488;48.558;18.150;2022-10-16T12:40:29;100293.38;;;21.34;52.83
54592;BME280;40488;48.558;18.150;2022-10-16T12:42:58;100287.31;;;21.59;52.80
54592;BME280;40488;48.558;18.150;2022-10-16T12:45:29;100283.69;;;21.63;52.00
54592;BME280;40488;48.558;18.150;2022-10-16T12:48:01;100285.50;;;21.61;51.71
54592;BME280;40488;48.558;18.150;2022-10-16T12:50:34;100290.47;;;21.67;51.80
54592;BME280;40488;48.558;18.150;2022-10-16T12:53:16;100286.53;;;21.57;52.03
54592;BME280;40488;48.558;18.150;2022-10-16T12:55:54;100284.22;;;21.72;52.61
54592;BME280;40488;48.558;18.150;2022-10-16T12:58:49;100290.00;;;21.80;52.01
54592;BME280;40488;48.558;18.150;2022-10-16T13:01:29;100295.03;;;21.85;51.59
54592;BME280;40488;48.558;18.150;2022-10-16T13:04:17;100294.41;;;21.78;51.99
54592;BME280;40488;48.558;18.150;2022-10-16T13:06:55;100292.19;;;21.68;51.47
54592;BME280;40488;48.558;18.150;2022-10-16T13:09:40;100297.13;;;21.51;51.76
54592;BME280;40488;48.558;18.150;2022-10-16T13:12:27;100293.88;;;21.69;52.15
54592;BME280;40488;48.558;18.150;2022-10-16T13:15:11;100296.81;;;21.83;51.91
54592;BME280;40488;48.558;18.150;2022-10-16T13:17:52;100298.22;;;21.93;51.70
54592;BME280;40488;48.558;18.150;2022-10-16T13:20:26;100297.72;;;21.59;51.25
54592;BME280;40488;48.558;18.150;2022-10-16T13:23:08;100308.72;;;21.41;52.06
54592;BME280;40488;48.558;18.150;2022-10-16T13:25:53;100305.56;;;21.32;52.26